Time;durP1;ratioP1;P1;durP2;ratioP2;P2;SDS_P1;SDS_P2;PMS_P1;PMS_P2;Temp;Humidity;BMP_temperature;BMP_pressure;BME280_temperature;BME280_humidity;BME280_pressure;Samples;Min_cycle;Max_cycle;Signal;HPM_P1;HPM_P2
2022/04/13 00:01:34;;;;;;;;;;;11.60;99.90;;;;;;6090081;23;19927;-80
2022/04/13 00:04:02;;;;;;;;;;;10.90;99.90;;;;;;6143452;23;19925;-81
2022/04/13 00:06:30;;;;;;;;;;;11.50;99.90;;;;;;6114637;23;19921;-81
2022/04/13 00:08:57;;;;;;;;;;;12.60;99.90;;;;;;6149953;23;19925;-80
2022/04/13 00:11:25;;;;;;;;;;;11.40;99.90;;;;;;6140834;23;19920;-80
2022/04/13 00:13:54;;;;;;;;;;;11.40;99.90;;;;;;6138656;23;19920;-81
2022/04/13 00:16:22;;;;;;;;;;;11.50;99.90;;;;;;6138164;23;19924;-81
2022/04/13 00:18:49;;;;;;;;;;;11.50;99.90;;;;;;6114576;23;19927;-81
2022/04/13 00:21:17;;;;;;;;;;;11.30;99.90;;;;;;6124337;23;19931;-81
2022/04/13 00:23:45;;;;;;;;;;;11.30;99.90;;;;;;6138446;23;19950;-81
2022/04/13 00:26:12;;;;;;;;;;;11.10;99.90;;;;;;6139368;23;19927;-82
2022/04/13 00:28:41;;;;;;;;;;;11.20;99.90;;;;;;6116542;23;19921;-81
2022/04/13 00:31:10;;;;;;;;;;;11.40;99.90;;;;;;6127406;23;19921;-81
2022/04/13 00:33:37;;;;;;;;;;;11.20;99.90;;;;;;6124946;23;19921;-80
2022/04/13 00:36:06;;;;;;;;;;;11.20;99.90;;;;;;6089198;23;20362;-80
2022/04/13 00:38:35;;;;;;;;;;;11.10;99.90;;;;;;6114748;23;19951;-81
2022/04/13 00:41:03;;;;;;;;;;;11.10;99.90;;;;;;6141882;23;19931;-81
2022/04/13 00:43:31;;;;;;;;;;;11.10;99.90;;;;;;6137775;23;19920;-80
2022/04/13 00:45:59;;;;;;;;;;;9.30;99.90;;;;;;6140091;23;19921;-81
2022/04/13 00:48:29;;;;;;;;;;;11.00;99.90;;;;;;6113771;23;19925;-80
2022/04/13 00:50:57;;;;;;;;;;;11.00;99.90;;;;;;6122813;23;19931;-80
2022/04/13 00:53:24;;;;;;;;;;;11.00;99.90;;;;;;6149759;23;19921;-80
2022/04/13 00:55:57;;;;;;;;;;;11.00;99.90;;;;;;6138463;23;19925;-80
2022/04/13 00:58:27;;;;;;;;;;;11.00;99.90;;;;;;6116848;23;20364;-81
2022/04/13 01:00:56;;;;;;;;;;;10.90;99.90;;;;;;6138621;23;19927;-81
2022/04/13 01:03:24;;;;;;;;;;;10.90;99.90;;;;;;6124216;23;19925;-80
2022/04/13 01:05:55;;;;;;;;;;;10.70;99.90;;;;;;6113857;23;19921;-80
2022/04/13 01:08:22;;;;;;;;;;;10.90;99.90;;;;;;6091705;23;19931;-80
2022/04/13 01:10:50;;;;;;;;;;;10.90;99.90;;;;;;6116067;23;19921;-81
2022/04/13 01:13:20;;;;;;;;;;;10.90;99.90;;;;;;6149837;23;19921;-80
2022/04/13 01:15:49;;;;;;;;;;;10.80;99.90;;;;;;6140092;23;19921;-80
2022/04/13 01:18:18;;;;;;;;;;;10.80;99.90;;;;;;6148379;23;20279;-81
2022/04/13 01:20:52;;;;;;;;;;;10.80;99.90;;;;;;6115838;23;19921;-81
2022/04/13 01:23:24;;;;;;;;;;;10.80;99.90;;;;;;6114249;23;19920;-81
2022/04/13 01:25:53;;;;;;;;;;;10.70;99.90;;;;;;6148999;23;19921;-79
2022/04/13 01:28:23;;;;;;;;;;;10.70;99.90;;;;;;6125641;23;19920;-80
2022/04/13 01:30:56;;;;;;;;;;;10.70;99.90;;;;;;6113780;23;19921;-80
2022/04/13 01:33:28;;;;;;;;;;;10.60;99.90;;;;;;6139932;23;19921;-79
2022/04/13 01:36:00;;;;;;;;;;;10.60;99.90;;;;;;6123178;23;19921;-80
2022/04/13 01:38:29;;;;;;;;;;;10.60;99.90;;;;;;6147453;23;19927;-80
2022/04/13 01:40:57;;;;;;;;;;;10.60;99.90;;;;;;6122992;23;19935;-80
2022/04/13 01:43:25;;;;;;;;;;;10.60;99.90;;;;;;6147773;23;19921;-80
2022/04/13 01:45:54;;;;;;;;;;;10.70;99.90;;;;;;6141276;23;19925;-81
2022/04/13 01:48:22;;;;;;;;;;;10.60;99.90;;;;;;6112894;23;19929;-81
2022/04/13 01:50:50;;;;;;;;;;;10.60;99.90;;;;;;6140472;23;19921;-81
2022/04/13 01:53:18;;;;;;;;;;;10.50;99.90;;;;;;6114871;23;19921;-81
2022/04/13 01:55:47;;;;;;;;;;;10.50;99.90;;;;;;6151549;23;19920;-82
2022/04/13 01:58:15;;;;;;;;;;;10.50;99.90;;;;;;6115543;23;19927;-81
2022/04/13 02:00:43;;;;;;;;;;;10.50;99.90;;;;;;6151110;23;19921;-81
2022/04/13 02:03:15;;;;;;;;;;;10.50;99.90;;;;;;6140147;23;20348;-81
2022/04/13 02:05:43;;;;;;;;;;;10.50;99.90;;;;;;6115907;23;19931;-81
2022/04/13 02:08:11;;;;;;;;;;;10.40;99.90;;;;;;6092080;23;20221;-80
2022/04/13 02:10:39;;;;;;;;;;;10.60;99.90;;;;;;6091385;23;19928;-81
2022/04/13 02:13:06;;;;;;;;;;;10.50;99.90;;;;;;6117759;23;19920;-80
2022/04/13 02:15:34;;;;;;;;;;;10.50;99.90;;;;;;6093105;23;19925;-80
2022/04/13 02:18:01;;;;;;;;;;;10.50;99.90;;;;;;6090899;23;20352;-81
2022/04/13 02:20:29;;;;;;;;;;;10.50;99.90;;;;;;6125058;23;19928;-80
2022/04/13 02:22:57;;;;;;;;;;;10.60;99.90;;;;;;6150643;23;19935;-81
2022/04/13 02:25:25;;;;;;;;;;;10.70;99.90;;;;;;6093127;23;19921;-81
2022/04/13 02:27:53;;;;;;;;;;;10.60;99.90;;;;;;6116659;23;19940;-81
2022/04/13 02:30:20;;;;;;;;;;;10.60;99.90;;;;;;6148443;23;19921;-80
2022/04/13 02:32:49;;;;;;;;;;;10.70;99.90;;;;;;6149612;23;19921;-80
2022/04/13 02:35:16;;;;;;;;;;;10.70;99.90;;;;;;6114788;23;19927;-81
2022/04/13 02:37:44;;;;;;;;;;;10.70;99.90;;;;;;6114778;23;19931;-81
2022/04/13 02:40:16;;;;;;;;;;;10.80;99.90;;;;;;6114830;23;19921;-81
2022/04/13 02:42:44;;;;;;;;;;;10.80;99.90;;;;;;6117453;23;19925;-81
2022/04/13 02:45:11;;;;;;;;;;;10.90;99.90;;;;;;6114857;23;19924;-80
2022/04/13 02:47:39;;;;;;;;;;;10.90;99.90;;;;;;6148891;23;19921;-81
2022/04/13 02:50:07;;;;;;;;;;;10.90;99.90;;;;;;6117417;23;20634;-80
2022/04/13 02:52:35;;;;;;;;;;;10.90;99.90;;;;;;6116489;23;19921;-81
2022/04/13 02:55:04;;;;;;;;;;;11.10;99.90;;;;;;6139041;23;19924;-80
2022/04/13 02:57:31;;;;;;;;;;;11.00;99.90;;;;;;6114935;23;19921;-80
2022/04/13 02:59:59;;;;;;;;;;;11.10;99.90;;;;;;6138074;23;20091;-81
2022/04/13 03:02:29;;;;;;;;;;;10.00;99.90;;;;;;6140525;23;19950;-81
2022/04/13 03:04:57;;;;;;;;;;;11.10;99.90;;;;;;6150040;23;19924;-80
2022/04/13 03:07:28;;;;;;;;;;;11.10;99.90;;;;;;6149800;23;19962;-81
2022/04/13 03:09:56;;;;;;;;;;;11.20;99.90;;;;;;6138778;23;19925;-81
2022/04/13 03:12:24;;;;;;;;;;;11.20;99.90;;;;;;6147682;23;19925;-81
2022/04/13 03:14:51;;;;;;;;;;;10.30;99.90;;;;;;6147658;23;19931;-82
2022/04/13 03:17:19;;;;;;;;;;;11.40;99.90;;;;;;6149762;23;19927;-81
2022/04/13 03:19:47;;;;;;;;;;;11.20;99.90;;;;;;6115660;23;20236;-81
2022/04/13 03:22:15;;;;;;;;;;;11.30;99.90;;;;;;6114848;23;19920;-80
2022/04/13 03:24:44;;;;;;;;;;;11.30;99.90;;;;;;6144960;23;19932;-80
2022/04/13 03:27:11;;;;;;;;;;;11.30;99.90;;;;;;6144450;23;20435;-81
2022/04/13 03:29:39;;;;;;;;;;;11.30;99.90;;;;;;6148617;23;19924;-80
2022/04/13 03:32:07;;;;;;;;;;;11.30;99.90;;;;;;6147554;23;19931;-80
2022/04/13 03:34:35;;;;;;;;;;;11.40;99.90;;;;;;6115115;23;19921;-81
2022/04/13 03:37:03;;;;;;;;;;;12.20;99.90;;;;;;6124465;23;20263;-80
2022/04/13 03:39:31;;;;;;;;;;;11.40;99.90;;;;;;6116022;23;20328;-80
2022/04/13 03:41:59;;;;;;;;;;;11.40;99.90;;;;;;6138612;23;19921;-80
2022/04/13 03:44:26;;;;;;;;;;;11.40;99.90;;;;;;6139046;23;19921;-80
2022/04/13 03:46:54;;;;;;;;;;;11.40;99.90;;;;;;6139878;23;19931;-80
2022/04/13 03:49:23;;;;;;;;;;;11.50;99.90;;;;;;6142309;23;19925;-80
2022/04/13 03:51:50;;;;;;;;;;;11.40;99.90;;;;;;6114556;23;19921;-81
2022/04/13 03:54:18;;;;;;;;;;;11.40;99.90;;;;;;6114003;23;19921;-80
2022/04/13 03:56:46;;;;;;;;;;;11.50;99.90;;;;;;6149307;23;19927;-81
2022/04/13 03:59:13;;;;;;;;;;;11.50;99.90;;;;;;6113642;23;19921;-81
2022/04/13 04:01:41;;;;;;;;;;;11.50;99.90;;;;;;6149714;23;19927;-81
2022/04/13 04:04:10;;;;;;;;;;;11.50;99.90;;;;;;6115699;23;19920;-81
2022/04/13 04:06:37;;;;;;;;;;;11.50;99.90;;;;;;6115131;23;19947;-81
2022/04/13 04:09:05;;;;;;;;;;;11.60;99.90;;;;;;6150176;23;19921;-80
2022/04/13 04:11:33;;;;;;;;;;;11.50;99.90;;;;;;6115709;23;19921;-81
2022/04/13 04:14:01;;;;;;;;;;;11.50;99.90;;;;;;6139793;23;20187;-81
2022/04/13 04:16:29;;;;;;;;;;;11.60;99.90;;;;;;6122969;23;19927;-81
2022/04/13 04:18:57;;;;;;;;;;;11.60;99.90;;;;;;6150084;23;19943;-81
2022/04/13 04:21:24;;;;;;;;;;;11.90;99.90;;;;;;6149960;23;19927;-80
2022/04/13 04:23:52;;;;;;;;;;;11.70;99.90;;;;;;6135586;23;19935;-81
2022/04/13 04:26:20;;;;;;;;;;;11.60;99.90;;;;;;6111099;23;19925;-81
2022/04/13 04:28:47;;;;;;;;;;;11.60;99.90;;;;;;6120057;23;19929;-81
2022/04/13 04:31:49;;;;;;;;;;;11.60;99.90;;;;;;6119984;23;19921;-81
2022/04/13 04:34:06;;;;;;;;;;;11.60;99.90;;;;;;6110517;23;19921;-80
2022/04/13 04:36:34;;;;;;;;;;;12.10;99.90;;;;;;6133272;23;20282;-80
2022/04/13 04:39:02;;;;;;;;;;;11.70;99.90;;;;;;6084826;23;19928;-81
2022/04/13 04:41:29;;;;;;;;;;;11.70;99.90;;;;;;6108351;23;19921;-81
2022/04/13 04:43:57;;;;;;;;;;;11.70;99.90;;;;;;6143473;23;19921;-80
2022/04/13 04:46:26;;;;;;;;;;;11.70;99.90;;;;;;6143506;23;19927;-80
2022/04/13 04:48:54;;;;;;;;;;;11.40;99.90;;;;;;6109683;23;19932;-81
2022/04/13 04:51:21;;;;;;;;;;;11.70;99.90;;;;;;6108981;23;19922;-80
2022/04/13 04:53:49;;;;;;;;;;;11.70;99.90;;;;;;6112529;23;19921;-80
2022/04/13 04:56:17;;;;;;;;;;;11.80;99.90;;;;;;6145081;23;19931;-81
2022/04/13 04:58:44;;;;;;;;;;;11.80;99.90;;;;;;6134792;23;19925;-80
2022/04/13 05:01:12;;;;;;;;;;;11.70;99.90;;;;;;6109354;23;20364;-80
2022/04/13 05:03:43;;;;;;;;;;;11.70;99.90;;;;;;6110090;23;19921;-80
2022/04/13 05:06:11;;;;;;;;;;;11.80;99.90;;;;;;6095020;23;19925;-81
2022/04/13 05:08:39;;;;;;;;;;;11.70;99.90;;;;;;6133813;23;19922;-81
2022/04/13 05:11:06;;;;;;;;;;;11.70;99.90;;;;;;6109368;23;19921;-81
2022/04/13 05:13:34;;;;;;;;;;;11.70;99.90;;;;;;6109674;23;19925;-81
2022/04/13 05:16:02;;;;;;;;;;;11.70;99.90;;;;;;6109711;23;20066;-80
2022/04/13 05:18:30;;;;;;;;;;;11.70;99.90;;;;;;6120378;23;19921;-81
2022/04/13 05:20:59;;;;;;;;;;;11.70;99.90;;;;;;6110337;23;19927;-80
2022/04/13 05:23:27;;;;;;;;;;;11.70;99.90;;;;;;6116634;23;19921;-81
2022/04/13 05:25:56;;;;;;;;;;;11.70;99.90;;;;;;6139957;23;20279;-81
2022/04/13 05:28:29;;;;;;;;;;;11.70;99.90;;;;;;6115194;23;19923;-79
2022/04/13 05:30:56;;;;;;;;;;;12.30;99.90;;;;;;6150166;23;19921;-80
2022/04/13 05:33:24;;;;;;;;;;;11.70;99.90;;;;;;6143593;23;19924;-80
2022/04/13 05:35:53;;;;;;;;;;;11.60;99.90;;;;;;6116289;23;19921;-79
2022/04/13 05:38:20;;;;;;;;;;;11.60;99.90;;;;;;6115542;23;19936;-80
2022/04/13 05:40:48;;;;;;;;;;;11.60;99.90;;;;;;6150181;23;20248;-81
2022/04/13 05:43:16;;;;;;;;;;;10.70;99.90;;;;;;6151356;23;19921;-80
2022/04/13 05:45:44;;;;;;;;;;;11.50;99.90;;;;;;6149667;23;19927;-80
2022/04/13 05:48:12;;;;;;;;;;;11.50;99.90;;;;;;6140705;23;19921;-81
2022/04/13 05:50:39;;;;;;;;;;;11.60;99.90;;;;;;6117672;23;19927;-80
2022/04/13 05:53:08;;;;;;;;;;;11.60;99.90;;;;;;6115483;23;19921;-80
2022/04/13 05:55:37;;;;;;;;;;;11.30;99.90;;;;;;6118303;23;20327;-81
2022/04/13 05:58:07;;;;;;;;;;;11.50;99.90;;;;;;6141998;23;20094;-80
2022/04/13 06:00:35;;;;;;;;;;;11.60;99.90;;;;;;6143163;23;20494;-80
2022/04/13 06:03:03;;;;;;;;;;;11.60;99.90;;;;;;6136574;23;19927;-79
2022/04/13 06:05:51;;;;;;;;;;;11.60;99.90;;;;;;6111296;23;19927;-79
2022/04/13 06:08:19;;;;;;;;;;;11.60;99.90;;;;;;6124476;23;19920;-81
2022/04/13 06:10:47;;;;;;;;;;;11.60;99.90;;;;;;6138056;23;19931;-80
2022/04/13 06:13:14;;;;;;;;;;;11.60;99.90;;;;;;6147870;23;20375;-80
2022/04/13 06:15:44;;;;;;;;;;;11.70;99.90;;;;;;6089139;23;19924;-79
2022/04/13 06:18:12;;;;;;;;;;;11.70;99.90;;;;;;6113282;23;19921;-82
2022/04/13 06:20:40;;;;;;;;;;;11.80;99.90;;;;;;6139970;23;20142;-80
2022/04/13 06:23:07;;;;;;;;;;;11.80;99.90;;;;;;6143456;23;19932;-80
2022/04/13 06:25:35;;;;;;;;;;;11.80;99.90;;;;;;6139939;23;19925;-81
2022/04/13 06:28:03;;;;;;;;;;;11.90;99.90;;;;;;6116119;23;19933;-81
2022/04/13 06:30:31;;;;;;;;;;;12.00;99.90;;;;;;6124721;23;19924;-80
2022/04/13 06:32:59;;;;;;;;;;;12.00;99.90;;;;;;6066205;23;19923;-81
2022/04/13 06:35:28;;;;;;;;;;;12.10;99.90;;;;;;6113695;23;19925;-80
2022/04/13 06:37:56;;;;;;;;;;;12.10;99.90;;;;;;6101645;23;19925;-80
2022/04/13 06:40:24;;;;;;;;;;;12.30;99.90;;;;;;6144376;23;19921;-80
2022/04/13 06:42:52;;;;;;;;;;;12.30;99.90;;;;;;6118623;23;19931;-81
2022/04/13 06:45:20;;;;;;;;;;;12.40;99.90;;;;;;6143496;23;19921;-82
2022/04/13 06:47:48;;;;;;;;;;;12.40;99.90;;;;;;6116837;23;19931;-80
2022/04/13 06:50:17;;;;;;;;;;;12.50;99.90;;;;;;6145145;23;19927;-80
2022/04/13 06:52:44;;;;;;;;;;;12.50;99.90;;;;;;6117552;23;19925;-81
2022/04/13 06:55:12;;;;;;;;;;;12.60;99.90;;;;;;6115910;23;19925;-80
2022/04/13 06:57:41;;;;;;;;;;;12.60;99.90;;;;;;6125586;23;19927;-82
2022/04/13 07:00:10;;;;;;;;;;;12.40;99.90;;;;;;6114933;23;19921;-81
2022/04/13 07:02:38;;;;;;;;;;;12.60;99.90;;;;;;6149298;23;19932;-80
2022/04/13 07:05:27;;;;;;;;;;;12.90;99.90;;;;;;6124926;23;20252;-81
2022/04/13 07:07:55;;;;;;;;;;;12.60;99.90;;;;;;6114736;23;19932;-81
2022/04/13 07:10:23;;;;;;;;;;;12.70;99.90;;;;;;6140020;23;19925;-80
2022/04/13 07:12:51;;;;;;;;;;;12.70;99.90;;;;;;6114964;23;19927;-81
2022/04/13 07:15:19;;;;;;;;;;;12.70;99.90;;;;;;6139389;23;19927;-80
2022/04/13 07:17:46;;;;;;;;;;;12.70;99.90;;;;;;6118074;23;19925;-80
2022/04/13 07:20:14;;;;;;;;;;;12.80;99.90;;;;;;6118061;23;19921;-80
2022/04/13 07:22:44;;;;;;;;;;;13.00;99.90;;;;;;6144859;23;19927;-81
2022/04/13 07:25:12;;;;;;;;;;;13.00;99.90;;;;;;6142808;23;20332;-80
2022/04/13 07:27:40;;;;;;;;;;;13.10;99.90;;;;;;6149537;23;20456;-80
2022/04/13 07:30:08;;;;;;;;;;;13.20;99.90;;;;;;6140689;23;19931;-81
2022/04/13 07:32:36;;;;;;;;;;;13.10;99.90;;;;;;6116228;23;19929;-81
2022/04/13 07:35:03;;;;;;;;;;;13.50;99.90;;;;;;6140655;23;19925;-81
2022/04/13 07:37:32;;;;;;;;;;;13.60;99.90;;;;;;6154236;23;19925;-80
2022/04/13 07:40:00;;;;;;;;;;;13.70;99.90;;;;;;6118791;23;19935;-80
2022/04/13 07:42:27;;;;;;;;;;;13.20;99.90;;;;;;6116572;23;19925;-80
2022/04/13 07:44:55;;;;;;;;;;;13.90;99.90;;;;;;6140389;23;19928;-81
2022/04/13 07:47:27;;;;;;;;;;;14.40;99.90;;;;;;6140337;23;19931;-80
2022/04/13 07:49:55;;;;;;;;;;;14.00;99.90;;;;;;6117942;23;19929;-80
2022/04/13 07:52:22;;;;;;;;;;;14.30;99.90;;;;;;6142916;23;19927;-80
2022/04/13 07:54:50;;;;;;;;;;;14.30;99.90;;;;;;6150720;23;19927;-81
2022/04/13 07:57:18;;;;;;;;;;;14.40;99.90;;;;;;6091279;23;19924;-80
2022/04/13 07:59:46;;;;;;;;;;;14.40;99.90;;;;;;6151354;23;20305;-80
2022/04/13 08:02:20;;;;;;;;;;;14.50;99.90;;;;;;6151381;23;19921;-80
2022/04/13 08:04:48;;;;;;;;;;;14.60;99.90;;;;;;6114589;23;19924;-80
2022/04/13 08:07:16;;;;;;;;;;;14.80;99.90;;;;;;6090625;23;19925;-80
2022/04/13 08:09:44;;;;;;;;;;;14.70;99.90;;;;;;6140112;23;19931;-80
2022/04/13 08:12:13;;;;;;;;;;;14.70;99.90;;;;;;6117138;23;19928;-81
2022/04/13 08:14:41;;;;;;;;;;;14.80;99.90;;;;;;6143355;23;20336;-81
2022/04/13 08:17:09;;;;;;;;;;;14.80;99.90;;;;;;6115223;23;19921;-81
2022/04/13 08:19:37;;;;;;;;;;;14.80;99.90;;;;;;6138891;23;19921;-80
2022/04/13 08:22:04;;;;;;;;;;;14.90;99.90;;;;;;6115396;23;19921;-82
2022/04/13 08:24:32;;;;;;;;;;;14.90;99.90;;;;;;6117133;23;19927;-81
2022/04/13 08:27:00;;;;;;;;;;;15.00;99.90;;;;;;6119345;23;19920;-81
2022/04/13 08:29:28;;;;;;;;;;;15.00;99.90;;;;;;6114812;23;19940;-80
2022/04/13 08:31:55;;;;;;;;;;;15.00;99.90;;;;;;6115130;23;19939;-80
2022/04/13 08:34:24;;;;;;;;;;;15.10;99.90;;;;;;6143353;23;19931;-81
2022/04/13 08:36:53;;;;;;;;;;;15.10;99.90;;;;;;6143369;23;19921;-80
2022/04/13 08:39:21;;;;;;;;;;;15.10;99.90;;;;;;6114755;23;20153;-80
2022/04/13 08:41:51;;;;;;;;;;;15.20;99.90;;;;;;6143127;23;19921;-80
2022/04/13 08:44:28;;;;;;;;;;;15.30;99.90;;;;;;6091266;23;19921;-82
2022/04/13 08:46:58;;;;;;;;;;;15.30;99.90;;;;;;6124445;23;19938;-81
2022/04/13 08:49:27;;;;;;;;;;;15.40;99.90;;;;;;6148914;23;19925;-81
2022/04/13 08:52:04;;;;;;;;;;;15.50;99.90;;;;;;6118382;23;19928;-80
2022/04/13 08:54:36;;;;;;;;;;;15.60;99.90;;;;;;6091618;23;19925;-79
2022/04/13 08:57:07;;;;;;;;;;;15.60;99.90;;;;;;6140201;23;19931;-79
2022/04/13 09:00:02;;;;;;;;;;;15.70;99.90;;;;;;6114505;23;19931;-79
2022/04/13 09:02:48;;;;;;;;;;;15.70;99.90;;;;;;6114489;23;19921;-79
2022/04/13 09:05:30;;;;;;;;;;;15.80;99.90;;;;;;6150436;23;19935;-81
2022/04/13 09:08:17;;;;;;;;;;;15.80;99.90;;;;;;6138086;23;19933;-80
2022/04/13 09:10:46;;;;;;;;;;;15.90;99.90;;;;;;6140202;23;19921;-80
2022/04/13 09:13:15;;;;;;;;;;;15.90;99.90;;;;;;6140230;23;19935;-80
2022/04/13 09:15:44;;;;;;;;;;;15.60;99.90;;;;;;6117506;23;19921;-79
2022/04/13 09:18:16;;;;;;;;;;;15.90;99.90;;;;;;6149640;23;19935;-79
2022/04/13 09:20:43;;;;;;;;;;;15.90;99.90;;;;;;6149653;23;19925;-80
2022/04/13 09:23:12;;;;;;;;;;;15.90;99.90;;;;;;6114778;23;19924;-80
2022/04/13 09:25:40;;;;;;;;;;;15.90;99.90;;;;;;6115393;23;19932;-80
2022/04/13 09:28:08;;;;;;;;;;;15.90;99.90;;;;;;6137798;23;19931;-81
2022/04/13 09:30:36;;;;;;;;;;;15.90;99.90;;;;;;6139425;23;20128;-81
2022/04/13 09:33:04;;;;;;;;;;;16.00;99.90;;;;;;6088936;23;19921;-80
2022/04/13 09:35:32;;;;;;;;;;;14.40;99.90;;;;;;6138621;23;19921;-80
2022/04/13 09:38:01;;;;;;;;;;;16.00;99.90;;;;;;6123325;23;20084;-82
2022/04/13 09:40:33;;;;;;;;;;;16.20;99.90;;;;;;6123600;23;19925;-80
2022/04/13 09:43:08;;;;;;;;;;;16.00;99.90;;;;;;6116638;23;20364;-80
2022/04/13 09:45:42;;;;;;;;;;;16.00;99.90;;;;;;6139624;23;19920;-83
2022/04/13 09:48:11;;;;;;;;;;;16.10;99.90;;;;;;6113403;23;19931;-81
2022/04/13 09:50:39;;;;;;;;;;;15.50;99.90;;;;;;6140160;23;19927;-81
2022/04/13 09:53:08;;;;;;;;;;;16.20;99.90;;;;;;6149081;23;19925;-82
2022/04/13 09:55:39;;;;;;;;;;;16.30;99.90;;;;;;6147707;23;20414;-81
2022/04/13 09:58:11;;;;;;;;;;;16.40;99.90;;;;;;6089119;23;19932;-82
2022/04/13 10:00:40;;;;;;;;;;;16.40;99.90;;;;;;6148286;23;19928;-81
2022/04/13 10:03:11;;;;;;;;;;;16.60;99.90;;;;;;6140632;23;19935;-81
2022/04/13 10:05:43;;;;;;;;;;;16.70;99.90;;;;;;6147988;23;19928;-81
2022/04/13 10:08:12;;;;;;;;;;;16.80;99.90;;;;;;6122405;23;19921;-81
2022/04/13 10:10:43;;;;;;;;;;;16.90;99.90;;;;;;6142066;23;19931;-81
2022/04/13 10:13:12;;;;;;;;;;;16.90;99.90;;;;;;6114811;23;20260;-80
2022/04/13 10:15:55;;;;;;;;;;;17.00;99.90;;;;;;6151099;23;19921;-81
2022/04/13 10:18:23;;;;;;;;;;;17.00;99.90;;;;;;6149793;23;20085;-81
2022/04/13 10:20:50;;;;;;;;;;;17.00;99.90;;;;;;6144448;23;19921;-80
2022/04/13 10:23:18;;;;;;;;;;;17.00;99.90;;;;;;6139713;23;19924;-79
2022/04/13 10:25:46;;;;;;;;;;;16.90;99.90;;;;;;6125429;23;19927;-80
2022/04/13 10:28:20;;;;;;;;;;;16.80;99.90;;;;;;6124696;23;20168;-80
2022/04/13 10:30:48;;;;;;;;;;;17.00;99.90;;;;;;6140844;23;19935;-81
2022/04/13 10:33:16;;;;;;;;;;;16.90;99.90;;;;;;6114168;23;19921;-81
2022/04/13 10:35:44;;;;;;;;;;;16.50;99.90;;;;;;6114393;23;19936;-81
2022/04/13 10:38:13;;;;;;;;;;;17.10;99.90;;;;;;6124139;23;19927;-80
2022/04/13 10:40:42;;;;;;;;;;;17.10;99.90;;;;;;6138031;23;19921;-81
2022/04/13 10:43:13;;;;;;;;;;;17.20;99.90;;;;;;6090761;23;19928;-80
2022/04/13 10:45:45;;;;;;;;;;;17.20;99.90;;;;;;6148439;23;20352;-81
2022/04/13 10:48:18;;;;;;;;;;;17.30;99.90;;;;;;6147858;23;19931;-81
2022/04/13 10:50:49;;;;;;;;;;;17.90;99.90;;;;;;6114765;23;19925;-80
2022/04/13 10:53:36;;;;;;;;;;;17.50;99.90;;;;;;6142202;23;19927;-81
2022/04/13 10:56:04;;;;;;;;;;;17.60;99.90;;;;;;6064704;23;19925;-80
2022/04/13 10:58:38;;;;;;;;;;;17.60;99.90;;;;;;6148328;23;19928;-80
2022/04/13 11:01:11;;;;;;;;;;;17.90;99.90;;;;;;6091787;23;19931;-80
2022/04/13 11:03:39;;;;;;;;;;;17.80;99.90;;;;;;6143341;23;20247;-81
2022/04/13 11:06:10;;;;;;;;;;;18.00;99.90;;;;;;6127945;23;19927;-80
2022/04/13 11:08:48;;;;;;;;;;;18.00;99.90;;;;;;6116426;23;19929;-81
2022/04/13 11:11:19;;;;;;;;;;;18.10;99.60;;;;;;6150886;23;19931;-81
2022/04/13 11:13:47;;;;;;;;;;;19.60;99.90;;;;;;6140970;23;19927;-81
2022/04/13 11:16:17;;;;;;;;;;;18.10;99.70;;;;;;6142045;23;19924;-81
2022/04/13 11:19:04;;;;;;;;;;;18.00;99.40;;;;;;6152665;23;19920;-82
2022/04/13 11:21:54;;;;;;;;;;;17.80;99.20;;;;;;6127638;23;19920;-80
2022/04/13 11:24:37;;;;;;;;;;;17.80;99.40;;;;;;6141001;23;20156;-81
2022/04/13 11:27:06;;;;;;;;;;;17.90;99.70;;;;;;6126048;23;20276;-79
2022/04/13 11:29:56;;;;;;;;;;;18.00;99.70;;;;;;6143672;23;20251;-81
2022/04/13 11:32:24;;;;;;;;;;;18.10;99.20;;;;;;6115151;23;19921;-80
2022/04/13 11:34:53;;;;;;;;;;;17.90;99.20;;;;;;6116395;23;19921;-80
2022/04/13 11:37:24;;;;;;;;;;;18.10;99.10;;;;;;6143309;23;19927;-80
2022/04/13 11:39:53;;;;;;;;;;;18.20;99.20;;;;;;6092518;23;19931;-79
2022/04/13 11:42:21;;;;;;;;;;;18.40;99.10;;;;;;6140995;23;19921;-80
2022/04/13 11:44:53;;;;;;;;;;;18.50;98.70;;;;;;6140897;23;19940;-80
2022/04/13 11:47:22;;;;;;;;;;;18.70;98.10;;;;;;6151832;23;19924;-81
2022/04/13 11:49:55;;;;;;;;;;;19.10;98.20;;;;;;6127113;23;19921;-80
2022/04/13 11:52:43;;;;;;;;;;;18.80;98.00;;;;;;6144021;23;19927;-81
2022/04/13 11:55:22;;;;;;;;;;;18.90;97.70;;;;;;6153004;23;19947;-81
2022/04/13 11:58:08;;;;;;;;;;;18.90;97.50;;;;;;6141480;23;19921;-81
2022/04/13 12:00:42;;;;;;;;;;;19.00;98.00;;;;;;6150275;23;19925;-78
2022/04/13 12:03:11;;;;;;;;;;;19.00;97.50;;;;;;6116214;23;19921;-80
2022/04/13 12:05:41;;;;;;;;;;;18.90;97.40;;;;;;6153798;23;19935;-80
2022/04/13 12:08:13;;;;;;;;;;;18.80;97.10;;;;;;6142000;23;19929;-79
2022/04/13 12:10:45;;;;;;;;;;;19.80;97.80;;;;;;6117576;23;19927;-81
2022/04/13 12:13:14;;;;;;;;;;;18.70;97.20;;;;;;6141341;23;19925;-81
2022/04/13 12:16:06;;;;;;;;;;;18.60;97.30;;;;;;6144034;23;19921;-82
2022/04/13 12:18:34;;;;;;;;;;;18.50;97.50;;;;;;6094111;23;19928;-81
2022/04/13 12:21:10;;;;;;;;;;;18.50;98.10;;;;;;6150434;23;19921;-81
2022/04/13 12:23:39;;;;;;;;;;;18.60;97.60;;;;;;6115565;23;19921;-81
2022/04/13 12:26:07;;;;;;;;;;;18.60;97.50;;;;;;6126308;23;20332;-81
2022/04/13 12:28:36;;;;;;;;;;;18.50;97.30;;;;;;6143729;23;19925;-81
2022/04/13 12:31:08;;;;;;;;;;;18.60;97.30;;;;;;6117557;23;19921;-80
2022/04/13 12:33:37;;;;;;;;;;;18.40;97.20;;;;;;6116770;23;19921;-79
2022/04/13 12:36:05;;;;;;;;;;;18.40;97.50;;;;;;6143955;23;19931;-81
2022/04/13 12:38:35;;;;;;;;;;;18.40;97.80;;;;;;6127543;23;19935;-80
2022/04/13 12:41:08;;;;;;;;;;;18.40;97.40;;;;;;6141418;23;19927;-81
2022/04/13 12:43:36;;;;;;;;;;;18.40;96.80;;;;;;6115942;23;19931;-79
2022/04/13 12:46:08;;;;;;;;;;;18.30;97.20;;;;;;6116093;23;19921;-81
2022/04/13 12:48:36;;;;;;;;;;;18.20;97.30;;;;;;6151049;23;19921;-80
2022/04/13 12:51:05;;;;;;;;;;;18.30;97.70;;;;;;6150616;23;19925;-80
2022/04/13 12:53:41;;;;;;;;;;;18.30;97.80;;;;;;6152059;23;19920;-81
2022/04/13 12:56:15;;;;;;;;;;;18.30;97.70;;;;;;6142744;23;20334;-80
2022/04/13 12:58:43;;;;;;;;;;;18.30;97.30;;;;;;6140080;23;19931;-81
2022/04/13 13:01:21;;;;;;;;;;;18.20;97.70;;;;;;6126920;23;19920;-81
2022/04/13 13:03:49;;;;;;;;;;;18.30;97.60;;;;;;6119840;23;19951;-81
2022/04/13 13:06:17;;;;;;;;;;;18.20;97.50;;;;;;6115870;23;19925;-81
2022/04/13 13:09:05;;;;;;;;;;;18.30;97.80;;;;;;6114535;23;19921;-81
2022/04/13 13:11:33;;;;;;;;;;;18.40;97.60;;;;;;6092424;23;19920;-81
2022/04/13 13:14:11;;;;;;;;;;;18.60;97.30;;;;;;6151149;23;19921;-81
2022/04/13 13:16:45;;;;;;;;;;;18.70;96.90;;;;;;6141847;23;19931;-81
2022/04/13 13:19:14;;;;;;;;;;;18.70;96.50;;;;;;6144256;23;19920;-81
2022/04/13 13:22:01;;;;;;;;;;;18.60;96.10;;;;;;6117366;23;19931;-81
2022/04/13 13:24:29;;;;;;;;;;;18.60;95.70;;;;;;6117008;23;19935;-81
2022/04/13 13:27:01;;;;;;;;;;;18.60;96.10;;;;;;6150824;23;19921;-81
2022/04/13 13:29:29;;;;;;;;;;;18.50;95.80;;;;;;6115639;23;19931;-81
2022/04/13 13:32:08;;;;;;;;;;;18.50;96.30;;;;;;6142613;23;19921;-80
2022/04/13 13:34:36;;;;;;;;;;;18.50;96.10;;;;;;6113922;23;19925;-81
2022/04/13 13:37:04;;;;;;;;;;;18.50;96.10;;;;;;6150156;23;19924;-81
2022/04/13 13:39:32;;;;;;;;;;;18.40;96.20;;;;;;6144192;23;19921;-79
2022/04/13 13:42:04;;;;;;;;;;;18.50;96.20;;;;;;6143113;23;19928;-81
2022/04/13 13:44:32;;;;;;;;;;;18.70;95.20;;;;;;6114741;23;19921;-81
2022/04/13 13:47:01;;;;;;;;;;;19.10;95.40;;;;;;6116203;23;19921;-80
2022/04/13 13:49:31;;;;;;;;;;;19.50;95.30;;;;;;6140884;23;20258;-81
2022/04/13 13:51:59;;;;;;;;;;;19.70;94.90;;;;;;6115438;23;19951;-80
2022/04/13 13:54:27;;;;;;;;;;;19.70;94.40;;;;;;6092696;23;19935;-81
2022/04/13 13:56:55;;;;;;;;;;;19.70;94.90;;;;;;6151759;23;19931;-80
2022/04/13 13:59:22;;;;;;;;;;;19.60;94.60;;;;;;6143127;23;19939;-79
2022/04/13 14:01:50;;;;;;;;;;;19.60;94.10;;;;;;6117393;23;19920;-81
2022/04/13 14:04:24;;;;;;;;;;;19.00;93.70;;;;;;6142057;23;19927;-81
2022/04/13 14:06:53;;;;;;;;;;;19.40;94.20;;;;;;6144152;23;20386;-81
2022/04/13 14:09:27;;;;;;;;;;;19.30;94.10;;;;;;6117574;23;19927;-81
2022/04/13 14:11:56;;;;;;;;;;;19.10;94.30;;;;;;6119917;23;19920;-80
2022/04/13 14:14:23;;;;;;;;;;;19.00;93.80;;;;;;6117418;23;19925;-80
2022/04/13 14:16:53;;;;;;;;;;;18.80;94.50;;;;;;6141512;23;19921;-80
2022/04/13 14:19:22;;;;;;;;;;;18.80;94.00;;;;;;6154440;23;19921;-81
2022/04/13 14:21:49;;;;;;;;;;;19.20;94.70;;;;;;6144772;23;19932;-81
2022/04/13 14:24:17;;;;;;;;;;;19.60;94.00;;;;;;6142327;23;19921;-81
2022/04/13 14:26:44;;;;;;;;;;;19.80;93.50;;;;;;6126919;23;20146;-82
2022/04/13 14:29:13;;;;;;;;;;;19.80;93.50;;;;;;6117070;23;19921;-81
2022/04/13 14:31:40;;;;;;;;;;;19.90;93.20;;;;;;6132323;23;19928;-81